Time;durP1;ratioP1;P1;durP2;ratioP2;P2;SDS_P1;SDS_P2;PMS_P1;PMS_P2;Temp;Humidity;BMP_temperature;BMP_pressure;BME280_temperature;BME280_humidity;BME280_pressure;Samples;Min_cycle;Max_cycle;Signal;HPM_P1;HPM_P2
2022/09/03 00:00:28;;;;;;;0.20;0.10;;;;;;;;;;6119464;23;20040;-84
2022/09/03 00:03:03;;;;;;;0.20;0.10;;;;;;;;;;6119782;23;20022;-86
2022/09/03 00:05:50;;;;;;;0.20;0.10;;;;;;;;;;6120333;23;20028;-86
2022/09/03 00:08:22;;;;;;;0.20;0.10;;;;;;;;;;6118106;23;20056;-86
2022/09/03 00:10:52;;;;;;;0.20;0.10;;;;;;;;;;6144872;23;20493;-86
2022/09/03 00:13:28;;;;;;;0.20;0.10;;;;;;;;;;6118343;23;20066;-86
2022/09/03 00:15:56;;;;;;;0.20;0.10;;;;;;;;;;6119011;23;20386;-83
2022/09/03 00:18:25;;;;;;;0.20;0.10;;;;;;;;;;6119664;23;20025;-85
2022/09/03 00:20:58;;;;;;;0.20;0.10;;;;;;;;;;6143297;23;20351;-85
2022/09/03 00:23:26;;;;;;;0.20;0.10;;;;;;;;;;6119376;23;20062;-86
2022/09/03 00:25:58;;;;;;;0.20;0.10;;;;;;;;;;6119236;23;20103;-85
2022/09/03 00:28:28;;;;;;;0.20;0.10;;;;;;;;;;6119516;23;20650;-83
2022/09/03 00:31:27;;;;;;;0.20;0.10;;;;;;;;;;6118718;23;20059;-86
2022/09/03 00:33:59;;;;;;;0.20;0.10;;;;;;;;;;6112308;23;20052;-86
2022/09/03 00:36:30;;;;;;;0.20;0.10;;;;;;;;;;6144752;23;20025;-85
2022/09/03 00:38:57;;;;;;;0.22;0.13;;;;;;;;;;6118450;23;20036;-84
2022/09/03 00:41:44;;;;;;;0.20;0.10;;;;;;;;;;6071404;23;20115;-85
2022/09/03 00:44:27;;;;;;;0.20;0.10;;;;;;;;;;5120553;27;1254886;-85
2022/09/03 00:47:17;;;;;;;0.20;0.10;;;;;;;;;;5121808;27;20111;-87
2022/09/03 00:49:46;;;;;;;0.20;0.10;;;;;;;;;;5129465;27;20057;-85
2022/09/03 00:52:18;;;;;;;0.20;0.10;;;;;;;;;;5113842;27;20039;-87
2022/09/03 00:54:44;;;;;;;;;;;;;;;;;;5133757;22;20438;-86
2022/09/03 00:57:33;;;;;;;0.20;0.10;;;;;;;;;;5067510;28;19999;-86
2022/09/03 01:00:00;;;;;;;0.20;0.10;;;;;;;;;;5063195;28;20186;-87
2022/09/03 01:02:29;;;;;;;0.20;0.10;;;;;;;;;;5057678;28;20136;-85
2022/09/03 01:05:17;;;;;;;0.20;0.10;;;;;;;;;;5041067;28;20044;-86
2022/09/03 01:07:52;;;;;;;0.20;0.10;;;;;;;;;;5037240;28;20059;-85
2022/09/03 01:10:30;;;;;;;0.20;0.10;;;;;;;;;;5051599;28;20052;-84
2022/09/03 01:12:57;;;;;;;0.20;0.10;;;;;;;;;;5035676;28;20044;-85
2022/09/03 01:15:30;;;;;;;0.20;0.10;;;;;;;;;;5050552;28;20091;-85
2022/09/03 01:18:10;;;;;;;0.20;0.10;;;;;;;;;;5048148;28;20307;-86
2022/09/03 01:20:37;;;;;;;0.20;0.10;;;;;;;;;;5046292;28;20043;-87
2022/09/03 01:23:03;;;;;;;0.20;0.10;;;;;;;;;;5036026;28;20051;-87
2022/09/03 01:25:32;;;;;;;0.20;0.10;;;;;;;;;;5052690;28;20133;-86
2022/09/03 01:28:12;;;;;;;0.20;0.10;;;;;;;;;;5031565;28;20040;-86
2022/09/03 01:30:41;;;;;;;0.20;0.10;;;;;;;;;;5049384;28;20047;-86
2022/09/03 01:33:19;;;;;;;0.20;0.10;;;;;;;;;;5052861;28;20045;-85
2022/09/03 01:36:04;;;;;;;0.20;0.10;;;;;;;;;;5030687;28;20044;-86
2022/09/03 01:38:37;;;;;;;0.20;0.10;;;;;;;;;;5051793;28;20044;-84
2022/09/03 01:44:39;;;;;;;0.20;0.03;;;;;;;;;;5014043;28;20051;-85
2022/09/03 01:47:24;;;;;;;0.20;0.10;;;;;;;;;;5034461;28;20032;-85
2022/09/03 01:50:10;;;;;;;0.20;0.10;;;;;;;;;;5059578;28;20076;-85
2022/09/03 01:52:43;;;;;;;0.20;0.10;;;;;;;;;;5013369;28;20044;-85
2022/09/03 01:55:21;;;;;;;0.20;0.10;;;;;;;;;;5040804;28;20129;-84
2022/09/03 01:57:50;;;;;;;0.20;0.00;;;;;;;;;;5035232;28;20489;-85
2022/09/03 02:00:20;;;;;;;0.20;0.10;;;;;;;;;;5037761;28;20499;-86
2022/09/03 02:02:47;;;;;;;0.20;0.10;;;;;;;;;;5037615;28;20052;-84
2022/09/03 02:05:13;;;;;;;0.20;0.10;;;;;;;;;;5020968;28;20173;-85
2022/09/03 02:07:41;;;;;;;0.20;0.10;;;;;;;;;;5034445;28;20032;-84
2022/09/03 02:10:10;;;;;;;0.20;0.10;;;;;;;;;;5038866;28;20403;-86
2022/09/03 02:12:38;;;;;;;0.20;0.10;;;;;;;;;;5016157;28;20044;-85
2022/09/03 02:15:11;;;;;;;0.20;0.10;;;;;;;;;;5020604;28;20036;-85
2022/09/03 02:17:37;;;;;;;0.20;0.10;;;;;;;;;;5035289;28;20682;-87
2022/09/03 02:20:06;;;;;;;0.20;0.10;;;;;;;;;;5021419;28;20201;-85
2022/09/03 02:22:32;;;;;;;0.20;0.10;;;;;;;;;;5033114;28;20036;-86
2022/09/03 02:24:59;;;;;;;0.20;0.10;;;;;;;;;;5020913;28;20163;-85
2022/09/03 02:27:25;;;;;;;0.20;0.10;;;;;;;;;;5016447;28;20064;-85
2022/09/03 02:29:51;;;;;;;0.20;0.08;;;;;;;;;;5052918;28;20091;-86
2022/09/03 02:32:17;;;;;;;0.20;0.10;;;;;;;;;;4996543;28;20052;-84
2022/09/03 02:34:43;;;;;;;0.20;0.10;;;;;;;;;;5032205;28;20074;-86
2022/09/03 02:37:17;;;;;;;0.20;0.10;;;;;;;;;;4999196;28;20036;-86
2022/09/03 02:39:43;;;;;;;0.20;0.10;;;;;;;;;;5034391;28;20095;-85
2022/09/03 02:42:11;;;;;;;0.20;0.10;;;;;;;;;;5002389;28;20040;-85
2022/09/03 02:44:40;;;;;;;0.20;0.10;;;;;;;;;;5015876;28;20048;-85
2022/09/03 02:47:06;;;;;;;0.20;0.10;;;;;;;;;;5033794;28;20490;-85
2022/09/03 02:49:33;;;;;;;0.20;0.10;;;;;;;;;;5020719;28;20037;-84
2022/09/03 02:52:08;;;;;;;0.20;0.10;;;;;;;;;;5018241;28;20043;-84
2022/09/03 02:54:38;;;;;;;0.20;0.10;;;;;;;;;;5036825;28;20111;-84
2022/09/03 02:57:04;;;;;;;0.20;0.10;;;;;;;;;;5016470;28;20284;-85
2022/09/03 02:59:31;;;;;;;0.20;0.10;;;;;;;;;;5033031;28;20561;-84
2022/09/03 03:01:57;;;;;;;0.20;0.10;;;;;;;;;;5012190;28;20124;-86
2022/09/03 03:04:23;;;;;;;0.20;0.10;;;;;;;;;;5001043;28;20091;-83
2022/09/03 03:06:51;;;;;;;0.20;0.10;;;;;;;;;;5033831;28;20049;-86
2022/09/03 03:09:18;;;;;;;0.20;0.10;;;;;;;;;;5033696;28;20093;-84
2022/09/03 03:11:44;;;;;;;0.20;0.10;;;;;;;;;;5034522;28;20556;-85
2022/09/03 03:14:10;;;;;;;0.20;0.10;;;;;;;;;;5033777;28;20617;-85
2022/09/03 03:16:36;;;;;;;0.20;0.10;;;;;;;;;;5013879;28;20128;-86
2022/09/03 03:19:02;;;;;;;0.20;0.10;;;;;;;;;;5021026;28;20040;-86
2022/09/03 03:21:29;;;;;;;0.20;0.10;;;;;;;;;;5033567;28;20049;-84
2022/09/03 03:23:55;;;;;;;0.20;0.10;;;;;;;;;;5018723;28;20073;-85
2022/09/03 03:26:23;;;;;;;0.20;0.10;;;;;;;;;;5033265;28;20052;-86
2022/09/03 03:28:50;;;;;;;0.20;0.10;;;;;;;;;;5018399;28;20486;-87
2022/09/03 03:31:17;;;;;;;0.20;0.10;;;;;;;;;;5038202;28;20045;-86
2022/09/03 03:33:43;;;;;;;0.20;0.10;;;;;;;;;;5035746;28;20476;-86
2022/09/03 03:36:14;;;;;;;0.20;0.10;;;;;;;;;;5014281;28;20049;-85
2022/09/03 03:38:40;;;;;;;0.20;0.10;;;;;;;;;;5033712;28;20063;-85
2022/09/03 03:41:16;;;;;;;0.20;0.10;;;;;;;;;;5015288;28;20110;-85
2022/09/03 03:43:43;;;;;;;0.20;0.10;;;;;;;;;;5035072;28;20045;-86
2022/09/03 03:46:09;;;;;;;0.20;0.10;;;;;;;;;;5018867;28;20048;-86
2022/09/03 03:48:36;;;;;;;0.20;0.10;;;;;;;;;;4997070;28;20033;-86
2022/09/03 03:51:05;;;;;;;0.20;0.10;;;;;;;;;;5003696;28;20068;-85
2022/09/03 03:53:31;;;;;;;0.20;0.10;;;;;;;;;;5017404;28;20037;-84
2022/09/03 03:55:58;;;;;;;0.20;0.10;;;;;;;;;;5018426;28;20079;-85
2022/09/03 03:58:24;;;;;;;0.20;0.00;;;;;;;;;;5033412;28;20097;-84
2022/09/03 04:00:51;;;;;;;0.20;0.10;;;;;;;;;;5020281;28;20036;-86
2022/09/03 04:03:17;;;;;;;0.20;0.10;;;;;;;;;;5013802;28;20049;-86
2022/09/03 04:05:43;;;;;;;0.20;0.10;;;;;;;;;;5015087;28;20048;-85
2022/09/03 04:08:09;;;;;;;0.20;0.08;;;;;;;;;;5018373;28;20116;-84
2022/09/03 04:10:36;;;;;;;0.20;0.10;;;;;;;;;;5023886;28;20062;-84
2022/09/03 04:13:02;;;;;;;0.20;0.10;;;;;;;;;;5019132;28;20036;-88
2022/09/03 04:15:28;;;;;;;0.20;0.10;;;;;;;;;;4997364;28;20080;-85
2022/09/03 04:17:54;;;;;;;0.20;0.10;;;;;;;;;;5033248;28;20177;-83
2022/09/03 04:20:20;;;;;;;0.20;0.10;;;;;;;;;;5031211;28;20049;-85
2022/09/03 04:22:46;;;;;;;0.20;0.10;;;;;;;;;;4996872;28;20407;-85
2022/09/03 04:25:13;;;;;;;0.20;0.10;;;;;;;;;;5017552;28;20041;-86
2022/09/03 04:27:39;;;;;;;1.00;0.30;;;;;;;;;;5017653;28;20028;-86
2022/09/03 04:30:05;;;;;;;0.20;0.10;;;;;;;;;;5012295;28;20032;-84
2022/09/03 04:35:16;;;;;;;0.20;0.10;;;;;;;;;;5033665;28;20491;-86
2022/09/03 04:37:42;;;;;;;0.20;0.10;;;;;;;;;;5029475;28;20043;-84
2022/09/03 04:40:08;;;;;;;0.20;0.10;;;;;;;;;;5019019;28;20037;-85
2022/09/03 04:42:34;;;;;;;0.20;0.10;;;;;;;;;;4998565;28;20491;-85
2022/09/03 04:45:00;;;;;;;0.20;0.10;;;;;;;;;;5018789;28;20837;-85
2022/09/03 04:47:27;;;;;;;0.20;0.10;;;;;;;;;;5031443;28;20080;-85
2022/09/03 04:49:54;;;;;;;0.20;0.10;;;;;;;;;;5028070;28;20524;-85
2022/09/03 04:52:20;;;;;;;0.20;0.03;;;;;;;;;;4996782;28;20138;-85
2022/09/03 04:54:46;;;;;;;0.20;0.10;;;;;;;;;;4995174;28;20569;-87
2022/09/03 04:57:12;;;;;;;0.20;0.10;;;;;;;;;;5033173;28;20495;-83
2022/09/03 04:59:39;;;;;;;0.20;0.10;;;;;;;;;;5018740;28;20501;-84
2022/09/03 05:02:07;;;;;;;0.20;0.10;;;;;;;;;;5008104;28;20041;-84
2022/09/03 05:04:33;;;;;;;0.20;0.10;;;;;;;;;;5032938;28;20119;-84
2022/09/03 05:06:59;;;;;;;0.20;0.10;;;;;;;;;;5002172;28;20033;-84
2022/09/03 05:09:25;;;;;;;0.20;0.10;;;;;;;;;;5036687;28;20079;-87
2022/09/03 05:11:51;;;;;;;0.20;0.10;;;;;;;;;;4997493;28;20041;-85
2022/09/03 05:14:20;;;;;;;0.20;0.10;;;;;;;;;;5016666;28;20093;-85
2022/09/03 05:16:46;;;;;;;0.20;0.10;;;;;;;;;;5012152;28;20033;-85
2022/09/03 05:19:12;;;;;;;0.20;0.10;;;;;;;;;;5016369;28;20446;-86
2022/09/03 05:21:38;;;;;;;0.20;0.10;;;;;;;;;;5015180;28;20560;-85
2022/09/03 05:24:04;;;;;;;0.20;0.10;;;;;;;;;;5031838;28;20056;-84
2022/09/03 05:26:33;;;;;;;0.20;0.10;;;;;;;;;;5015461;28;20122;-84
2022/09/03 05:29:00;;;;;;;0.20;0.10;;;;;;;;;;5015288;28;20054;-86
2022/09/03 05:31:28;;;;;;;0.20;0.10;;;;;;;;;;5021139;28;20128;-85
2022/09/03 05:33:57;;;;;;;0.20;0.10;;;;;;;;;;5039609;28;20049;-86
2022/09/03 05:36:24;;;;;;;0.20;0.10;;;;;;;;;;5020815;28;20064;-87
2022/09/03 05:38:52;;;;;;;0.20;0.10;;;;;;;;;;5033970;28;20079;-86
2022/09/03 05:41:20;;;;;;;0.20;0.10;;;;;;;;;;5017089;28;20494;-85
2022/09/03 05:43:54;;;;;;;0.20;0.10;;;;;;;;;;5019642;28;20627;-83
2022/09/03 05:46:20;;;;;;;0.20;0.10;;;;;;;;;;5019397;28;20043;-84
2022/09/03 05:48:46;;;;;;;0.20;0.10;;;;;;;;;;5018615;28;20031;-85
2022/09/03 05:51:15;;;;;;;0.20;0.10;;;;;;;;;;5040495;28;20033;-86
2022/09/03 05:53:42;;;;;;;0.20;0.10;;;;;;;;;;5035534;28;20076;-85
2022/09/03 05:56:18;;;;;;;0.20;0.10;;;;;;;;;;5034763;28;21931;-86
2022/09/03 05:58:45;;;;;;;0.20;0.10;;;;;;;;;;5037500;28;20510;-86
2022/09/03 06:01:14;;;;;;;0.20;0.10;;;;;;;;;;5034842;28;20120;-86
2022/09/03 06:03:41;;;;;;;0.20;0.10;;;;;;;;;;5021259;28;20494;-86
2022/09/03 06:06:08;;;;;;;0.20;0.10;;;;;;;;;;5016264;28;20866;-85
2022/09/03 06:08:36;;;;;;;0.20;0.10;;;;;;;;;;5021219;28;20539;-86
2022/09/03 06:11:03;;;;;;;0.20;0.10;;;;;;;;;;5039231;28;20036;-85
2022/09/03 06:13:29;;;;;;;0.20;0.10;;;;;;;;;;5019045;28;20048;-86
2022/09/03 06:15:59;;;;;;;0.20;0.10;;;;;;;;;;5053664;28;20094;-83
2022/09/03 06:18:29;;;;;;;0.20;0.10;;;;;;;;;;5006756;28;20049;-85
2022/09/03 06:20:55;;;;;;;0.20;0.10;;;;;;;;;;5020065;28;20040;-86
2022/09/03 06:23:22;;;;;;;0.20;0.10;;;;;;;;;;5013861;28;20037;-86
2022/09/03 06:25:48;;;;;;;0.20;0.10;;;;;;;;;;5018183;28;20226;-84
2022/09/03 06:28:14;;;;;;;0.20;0.10;;;;;;;;;;5017487;28;20037;-85
2022/09/03 06:30:40;;;;;;;0.20;0.10;;;;;;;;;;5001439;28;20036;-84
2022/09/03 06:33:07;;;;;;;0.20;0.10;;;;;;;;;;5003853;28;20071;-86
2022/09/03 06:35:33;;;;;;;0.20;0.10;;;;;;;;;;5015134;28;20036;-87
2022/09/03 06:37:59;;;;;;;0.20;0.10;;;;;;;;;;5019383;28;20052;-84
2022/09/03 06:40:25;;;;;;;0.20;0.10;;;;;;;;;;5018664;28;20036;-86
2022/09/03 06:43:02;;;;;;;0.20;0.10;;;;;;;;;;5019290;28;20036;-85
2022/09/03 06:45:29;;;;;;;0.20;0.10;;;;;;;;;;5018724;28;20552;-85
2022/09/03 06:47:55;;;;;;;0.20;0.10;;;;;;;;;;5032384;28;20037;-86
2022/09/03 06:50:21;;;;;;;0.20;0.10;;;;;;;;;;5012294;28;20106;-86
2022/09/03 06:52:53;;;;;;;0.20;0.10;;;;;;;;;;5036232;28;20074;-85
2022/09/03 06:55:20;;;;;;;0.20;0.10;;;;;;;;;;5049942;22;20075;-85
2022/09/03 06:57:46;;;;;;;0.20;0.10;;;;;;;;;;5029221;28;20052;-86
2022/09/03 07:00:13;;;;;;;0.20;0.10;;;;;;;;;;5040892;28;20468;-85
2022/09/03 07:02:40;;;;;;;0.20;0.10;;;;;;;;;;5041754;28;20040;-85
2022/09/03 07:05:07;;;;;;;0.20;0.10;;;;;;;;;;5042971;28;20087;-85
2022/09/03 07:07:33;;;;;;;0.20;0.10;;;;;;;;;;5028492;28;20040;-86
2022/09/03 07:10:00;;;;;;;0.20;0.10;;;;;;;;;;4997737;28;20033;-86
2022/09/03 07:12:26;;;;;;;0.20;0.10;;;;;;;;;;5016483;28;20132;-86
2022/09/03 07:14:52;;;;;;;1.55;0.20;;;;;;;;;;5033760;28;20041;-88
2022/09/03 07:17:19;;;;;;;0.20;0.10;;;;;;;;;;5017930;28;20086;-87
2022/09/03 07:19:45;;;;;;;0.20;0.10;;;;;;;;;;5015767;28;20389;-84
2022/09/03 07:22:11;;;;;;;0.20;0.10;;;;;;;;;;5038931;28;20118;-85
2022/09/03 07:24:37;;;;;;;0.20;0.10;;;;;;;;;;5018869;28;20087;-87
2022/09/03 07:27:04;;;;;;;0.20;0.10;;;;;;;;;;5034261;28;20039;-86
2022/09/03 07:29:30;;;;;;;0.20;0.10;;;;;;;;;;5017114;28;20057;-85
2022/09/03 07:31:56;;;;;;;0.20;0.10;;;;;;;;;;5016928;28;20548;-87
2022/09/03 07:34:25;;;;;;;0.20;0.10;;;;;;;;;;5032598;28;20112;-86
2022/09/03 07:36:52;;;;;;;0.20;0.10;;;;;;;;;;5029237;28;20068;-87
2022/09/03 07:39:18;;;;;;;0.20;0.10;;;;;;;;;;5017764;28;20072;-84
2022/09/03 07:41:45;;;;;;;0.20;0.20;;;;;;;;;;5040950;28;20040;-86
2022/09/03 07:44:18;;;;;;;0.20;0.10;;;;;;;;;;5028939;28;20087;-83
2022/09/03 07:46:46;;;;;;;0.20;0.10;;;;;;;;;;5016837;28;20117;-87
2022/09/03 07:49:12;;;;;;;0.20;0.10;;;;;;;;;;5034471;28;20095;-88
2022/09/03 07:51:38;;;;;;;0.20;0.10;;;;;;;;;;5035755;28;20055;-91
2022/09/03 07:54:09;;;;;;;0.20;0.10;;;;;;;;;;5032651;28;20132;-86
2022/09/03 07:56:36;;;;;;;0.20;0.10;;;;;;;;;;5013131;28;20037;-87
2022/09/03 07:59:02;;;;;;;0.20;0.10;;;;;;;;;;5017721;28;20041;-86
2022/09/03 08:01:32;;;;;;;0.20;0.10;;;;;;;;;;4991908;28;20084;-87
2022/09/03 08:03:59;;;;;;;0.20;0.10;;;;;;;;;;5012582;28;20075;-87
2022/09/03 08:06:32;;;;;;;0.20;0.10;;;;;;;;;;4991237;28;20528;-86
2022/09/03 08:09:06;;;;;;;0.20;0.10;;;;;;;;;;4997682;28;20492;-87
2022/09/03 08:11:43;;;;;;;0.20;0.10;;;;;;;;;;4993615;28;20057;-86
2022/09/03 08:14:11;;;;;;;0.20;0.10;;;;;;;;;;4991319;28;20523;-87
2022/09/03 08:16:49;;;;;;;0.20;0.10;;;;;;;;;;5014770;28;20507;-88
2022/09/03 08:19:17;;;;;;;0.20;0.10;;;;;;;;;;5007179;28;20133;-85
2022/09/03 08:21:46;;;;;;;0.20;0.10;;;;;;;;;;5028597;28;20083;-88
2022/09/03 08:24:14;;;;;;;0.20;0.10;;;;;;;;;;5026189;28;20061;-85
2022/09/03 08:26:41;;;;;;;0.20;0.10;;;;;;;;;;5007378;28;20712;-84
2022/09/03 08:29:08;;;;;;;0.20;0.10;;;;;;;;;;4991591;28;20068;-86
2022/09/03 08:31:37;;;;;;;0.20;0.10;;;;;;;;;;5026893;28;20112;-88
2022/09/03 08:34:05;;;;;;;0.20;0.10;;;;;;;;;;5031908;28;20423;-85
2022/09/03 08:36:32;;;;;;;0.20;0.10;;;;;;;;;;5045664;28;20159;-85
2022/09/03 08:39:02;;;;;;;0.20;0.10;;;;;;;;;;5047558;28;20045;-87
2022/09/03 08:41:44;;;;;;;0.20;0.10;;;;;;;;;;5036940;28;20036;-85
2022/09/03 08:44:25;;;;;;;0.20;0.10;;;;;;;;;;5045665;28;20128;-87
2022/09/03 08:46:51;;;;;;;0.20;0.10;;;;;;;;;;5014598;28;20399;-86
2022/09/03 08:49:20;;;;;;;0.20;0.10;;;;;;;;;;5032847;28;20049;-86
2022/09/03 08:51:48;;;;;;;0.20;0.10;;;;;;;;;;5028685;28;20037;-87
2022/09/03 08:54:25;;;;;;;0.20;0.10;;;;;;;;;;5019693;28;20506;-85
2022/09/03 08:56:53;;;;;;;0.20;0.10;;;;;;;;;;5032504;28;20519;-86
2022/09/03 08:59:20;;;;;;;0.20;0.10;;;;;;;;;;5033035;28;20048;-83
2022/09/03 09:02:08;;;;;;;0.20;0.10;;;;;;;;;;5033825;28;20513;-84
2022/09/03 09:04:57;;;;;;;0.20;0.10;;;;;;;;;;5049607;28;20041;-85
2022/09/03 09:07:37;;;;;;;0.20;0.10;;;;;;;;;;5034569;28;20037;-86
2022/09/03 09:10:18;;;;;;;0.20;0.10;;;;;;;;;;5035091;28;20033;-85
2022/09/03 09:12:44;;;;;;;0.20;0.10;;;;;;;;;;5037873;28;20102;-87
2022/09/03 09:15:13;;;;;;;0.20;0.10;;;;;;;;;;5037590;28;20371;-85
2022/09/03 09:17:39;;;;;;;0.20;0.10;;;;;;;;;;5042235;28;20045;-87
2022/09/03 09:20:11;;;;;;;0.20;0.10;;;;;;;;;;5032432;28;20128;-84
2022/09/03 09:22:40;;;;;;;0.20;0.10;;;;;;;;;;5032426;28;20037;-87
2022/09/03 09:25:13;;;;;;;0.20;0.10;;;;;;;;;;5038148;28;20080;-85
2022/09/03 09:27:46;;;;;;;0.20;0.10;;;;;;;;;;5032653;28;20099;-88
2022/09/03 09:30:18;;;;;;;0.20;0.10;;;;;;;;;;5036574;28;20395;-86
2022/09/03 09:32:47;;;;;;;0.20;0.10;;;;;;;;;;5031484;28;20091;-86
2022/09/03 09:35:21;;;;;;;0.20;0.10;;;;;;;;;;5049076;28;20044;-84
2022/09/03 09:37:50;;;;;;;0.20;0.10;;;;;;;;;;5030501;28;20047;-85
2022/09/03 09:40:32;;;;;;;0.20;0.10;;;;;;;;;;5053330;28;20068;-84
2022/09/03 09:43:28;;;;;;;0.20;0.10;;;;;;;;;;5031267;28;20047;-85
2022/09/03 09:45:54;;;;;;;0.20;0.10;;;;;;;;;;4981281;28;20052;-85
2022/09/03 09:48:32;;;;;;;0.20;0.10;;;;;;;;;;5023280;28;20060;-86
2022/09/03 09:51:05;;;;;;;0.30;0.30;;;;;;;;;;5032233;28;20485;-84
2022/09/03 09:53:32;;;;;;;0.20;0.10;;;;;;;;;;5038062;28;20085;-83
2022/09/03 09:55:58;;;;;;;0.20;0.10;;;;;;;;;;5036503;28;20048;-87
2022/09/03 09:58:27;;;;;;;0.20;0.10;;;;;;;;;;4998259;28;20858;-84
2022/09/03 10:00:58;;;;;;;0.20;0.10;;;;;;;;;;5019539;28;20090;-87
2022/09/03 10:03:24;;;;;;;0.20;0.10;;;;;;;;;;5052981;28;20056;-88
2022/09/03 10:06:00;;;;;;;0.20;0.10;;;;;;;;;;5034796;28;20136;-86
2022/09/03 10:08:29;;;;;;;0.20;0.10;;;;;;;;;;5031452;28;20049;-86
2022/09/03 10:10:58;;;;;;;0.20;0.10;;;;;;;;;;5003530;28;20060;-88
2022/09/03 10:13:44;;;;;;;0.20;0.10;;;;;;;;;;5037040;28;20032;-86
2022/09/03 10:16:20;;;;;;;0.20;0.10;;;;;;;;;;5035408;28;20114;-86
2022/09/03 10:19:05;;;;;;;0.20;0.10;;;;;;;;;;5032990;28;20128;-87
2022/09/03 10:21:34;;;;;;;0.20;0.10;;;;;;;;;;5036582;28;20052;-85
2022/09/03 10:24:06;;;;;;;0.57;0.40;;;;;;;;;;5034711;28;20033;-84
2022/09/03 10:26:33;;;;;;;0.20;0.10;;;;;;;;;;5042097;28;20612;-87
2022/09/03 10:29:07;;;;;;;0.20;0.10;;;;;;;;;;4999243;28;20045;-87
2022/09/03 10:31:55;;;;;;;0.20;0.10;;;;;;;;;;5032343;28;20060;-86
2022/09/03 10:34:36;;;;;;;0.20;0.10;;;;;;;;;;5052018;28;20388;-86
2022/09/03 10:37:24;;;;;;;0.20;0.10;;;;;;;;;;5045929;28;20046;-87
2022/09/03 10:39:59;;;;;;;0.20;0.10;;;;;;;;;;5033435;28;20120;-87
2022/09/03 10:42:36;;;;;;;0.20;0.10;;;;;;;;;;5037324;28;20064;-86
2022/09/03 10:45:19;;;;;;;0.20;0.10;;;;;;;;;;5032003;28;20049;-86
2022/09/03 10:47:54;;;;;;;0.20;0.10;;;;;;;;;;5015102;28;20055;-86
2022/09/03 10:50:22;;;;;;;0.20;0.10;;;;;;;;;;5034777;28;20036;-84
2022/09/03 10:53:00;;;;;;;0.20;0.10;;;;;;;;;;5037125;28;20074;-85
2022/09/03 10:55:46;;;;;;;0.20;0.10;;;;;;;;;;5045637;28;20122;-85
2022/09/03 10:58:13;;;;;;;0.20;0.10;;;;;;;;;;5036265;28;20518;-86
2022/09/03 11:00:45;;;;;;;0.20;0.10;;;;;;;;;;5017742;28;20379;-84
2022/09/03 11:03:30;;;;;;;0.20;0.10;;;;;;;;;;5015836;28;20525;-85
2022/09/03 11:06:01;;;;;;;0.20;0.10;;;;;;;;;;5036436;28;20520;-87
2022/09/03 11:08:48;;;;;;;0.20;0.10;;;;;;;;;;5031421;28;20045;-86
2022/09/03 11:11:25;;;;;;;0.20;0.10;;;;;;;;;;5034307;28;20507;-86
2022/09/03 11:14:02;;;;;;;0.20;0.10;;;;;;;;;;5015750;28;20082;-86
2022/09/03 11:16:31;;;;;;;0.20;0.10;;;;;;;;;;5029780;28;20049;-86
2022/09/03 11:19:04;;;;;;;0.20;0.10;;;;;;;;;;5032069;28;20041;-85
2022/09/03 11:21:36;;;;;;;0.20;0.00;;;;;;;;;;5031017;28;20029;-87
2022/09/03 11:24:21;;;;;;;0.20;0.10;;;;;;;;;;5034116;28;21307;-87
2022/09/03 11:27:06;;;;;;;0.20;0.10;;;;;;;;;;5028796;28;20095;-88
2022/09/03 11:29:43;;;;;;;0.20;0.10;;;;;;;;;;5013343;28;20135;-86
2022/09/03 11:32:17;;;;;;;0.20;0.10;;;;;;;;;;5032009;28;20049;-86
2022/09/03 11:34:49;;;;;;;0.20;0.10;;;;;;;;;;5015039;28;20506;-89
2022/09/03 11:37:23;;;;;;;0.20;0.10;;;;;;;;;;5032466;28;20056;-86
2022/09/03 11:39:57;;;;;;;0.20;0.10;;;;;;;;;;5037210;28;20029;-88
2022/09/03 11:42:28;;;;;;;0.20;0.10;;;;;;;;;;5033307;28;20051;-86
2022/09/03 11:44:59;;;;;;;0.20;0.10;;;;;;;;;;5033971;28;20048;-88
2022/09/03 11:47:38;;;;;;;0.20;0.10;;;;;;;;;;5048163;28;20660;-85
2022/09/03 11:50:19;;;;;;;0.20;0.10;;;;;;;;;;5023714;28;20206;-83
2022/09/03 11:52:47;;;;;;;0.20;0.10;;;;;;;;;;5046473;28;20036;-86
2022/09/03 11:55:23;;;;;;;0.20;0.10;;;;;;;;;;5031927;28;20132;-86
2022/09/03 11:57:50;;;;;;;0.20;0.10;;;;;;;;;;5033910;28;20049;-86
2022/09/03 12:00:20;;;;;;;0.20;0.10;;;;;;;;;;5017276;28;20511;-86
2022/09/03 12:02:52;;;;;;;0.20;0.10;;;;;;;;;;5018180;28;20112;-85
2022/09/03 12:05:48;;;;;;;0.20;0.10;;;;;;;;;;5016323;28;20457;-88
2022/09/03 12:08:14;;;;;;;0.20;0.10;;;;;;;;;;5025634;28;20053;-86
2022/09/03 12:11:08;;;;;;;0.20;0.10;;;;;;;;;;5032306;28;20044;-88
2022/09/03 12:13:54;;;;;;;0.20;0.10;;;;;;;;;;5029988;28;20049;-86
2022/09/03 12:16:43;;;;;;;0.20;0.10;;;;;;;;;;5047502;28;20073;-86
2022/09/03 12:19:14;;;;;;;0.20;0.10;;;;;;;;;;5031736;28;20104;-84
2022/09/03 12:21:41;;;;;;;0.20;0.10;;;;;;;;;;5033247;28;20037;-87
2022/09/03 12:24:12;;;;;;;0.20;0.10;;;;;;;;;;5031948;28;20054;-86
2022/09/03 12:26:40;;;;;;;0.20;0.10;;;;;;;;;;5017188;28;20065;-88
2022/09/03 12:29:06;;;;;;;0.20;0.10;;;;;;;;;;5036217;28;20074;-86
2022/09/03 12:31:43;;;;;;;0.20;0.10;;;;;;;;;;5032082;28;20055;-87
2022/09/03 12:34:17;;;;;;;0.20;0.10;;;;;;;;;;5029989;28;20076;-85
2022/09/03 12:36:51;;;;;;;0.20;0.13;;;;;;;;;;5035696;28;20036;-86
2022/09/03 12:39:22;;;;;;;0.20;0.10;;;;;;;;;;5044418;28;20037;-85
2022/09/03 12:42:00;;;;;;;0.20;0.10;;;;;;;;;;5032627;28;20282;-86
2022/09/03 12:44:30;;;;;;;0.20;0.10;;;;;;;;;;5037842;28;20111;-84
2022/09/03 12:47:03;;;;;;;0.20;0.10;;;;;;;;;;5032579;28;20466;-86
2022/09/03 12:49:40;;;;;;;0.20;0.10;;;;;;;;;;5016327;28;20037;-86
2022/09/03 12:52:26;;;;;;;0.20;0.10;;;;;;;;;;5036568;28;20045;-87
2022/09/03 12:57:39;;;;;;;0.20;0.10;;;;;;;;;;5021522;28;20041;-85
2022/09/03 13:00:06;;;;;;;0.20;0.10;;;;;;;;;;4990877;28;20059;-85
2022/09/03 13:02:41;;;;;;;0.20;0.10;;;;;;;;;;4990382;28;20033;-86
2022/09/03 13:05:11;;;;;;;0.20;0.10;;;;;;;;;;5006388;28;20034;-85
2022/09/03 13:07:37;;;;;;;0.20;0.10;;;;;;;;;;5006772;28;20038;-85
2022/09/03 13:10:17;;;;;;;0.20;0.10;;;;;;;;;;4992158;28;20068;-86
2022/09/03 13:12:46;;;;;;;0.20;0.10;;;;;;;;;;5016543;28;20523;-85
2022/09/03 13:15:18;;;;;;;0.20;0.10;;;;;;;;;;5024130;28;20041;-85
2022/09/03 13:18:01;;;;;;;0.20;0.10;;;;;;;;;;5009808;28;20099;-87
2022/09/03 13:20:28;;;;;;;0.20;0.10;;;;;;;;;;5008095;28;20411;-90
2022/09/03 13:23:32;;;;;;;0.20;0.10;;;;;;;;;;4991172;28;20052;-84
2022/09/03 13:26:04;;;;;;;0.20;0.10;;;;;;;;;;4931119;29;20039;-83
2022/09/03 13:28:30;;;;;;;0.20;0.10;;;;;;;;;;4892781;29;20047;-82
2022/09/03 13:31:06;;;;;;;0.20;0.10;;;;;;;;;;4963525;28;20079;-84
2022/09/03 13:33:34;;;;;;;0.20;0.10;;;;;;;;;;4990980;28;20037;-84
2022/09/03 13:36:09;;;;;;;0.20;0.10;;;;;;;;;;4990355;28;20141;-84
2022/09/03 13:38:43;;;;;;;0.20;0.10;;;;;;;;;;5007007;28;20033;-82
2022/09/03 13:41:17;;;;;;;0.20;0.10;;;;;;;;;;5006697;28;20049;-84
2022/09/03 13:43:52;;;;;;;0.20;0.10;;;;;;;;;;4982374;28;20037;-84
2022/09/03 13:46:24;;;;;;;0.20;0.10;;;;;;;;;;5006757;28;20038;-85
2022/09/03 13:51:53;;;;;;;0.20;0.10;;;;;;;;;;5002575;28;19975;-85
2022/09/03 13:54:23;;;;;;;0.20;0.10;;;;;;;;;;5011508;28;20611;-85
2022/09/03 13:56:57;;;;;;;0.20;0.10;;;;;;;;;;5011395;28;20029;-83
2022/09/03 13:59:23;;;;;;;0.20;0.10;;;;;;;;;;5009605;28;20037;-83
2022/09/03 14:02:00;;;;;;;0.20;0.10;;;;;;;;;;5029089;28;20033;-84
2022/09/03 14:04:38;;;;;;;0.20;0.10;;;;;;;;;;5002943;28;20116;-84
2022/09/03 14:07:14;;;;;;;0.20;0.10;;;;;;;;;;5019015;28;20400;-84
2022/09/03 14:09:52;;;;;;;0.20;0.10;;;;;;;;;;5003357;28;20045;-84
2022/09/03 14:12:22;;;;;;;0.20;0.10;;;;;;;;;;5009320;28;20029;-85
2022/09/03 14:14:54;;;;;;;0.20;0.10;;;;;;;;;;5009748;28;20091;-84
2022/09/03 14:17:39;;;;;;;0.20;0.10;;;;;;;;;;5009245;28;20042;-84
2022/09/03 14:20:09;;;;;;;0.20;0.10;;;;;;;;;;4985692;28;20050;-84
2022/09/03 14:22:38;;;;;;;0.20;0.10;;;;;;;;;;5015209;28;20033;-83
2022/09/03 14:25:09;;;;;;;0.20;0.10;;;;;;;;;;5010891;28;20563;-84
2022/09/03 14:27:36;;;;;;;0.20;0.10;;;;;;;;;;5009577;28;20091;-83
2022/09/03 14:30:08;;;;;;;0.20;0.10;;;;;;;;;;5009460;28;20515;-84
2022/09/03 14:32:34;;;;;;;;;;;;;;;;;;4985102;28;20123;-83
2022/09/03 14:35:11;;;;;;;0.20;0.10;;;;;;;;;;5025356;28;19968;-82
2022/09/03 14:37:37;;;;;;;0.20;0.10;;;;;;;;;;5002397;28;20065;-85
2022/09/03 14:40:15;;;;;;;0.20;0.10;;;;;;;;;;5003947;28;20515;-84
2022/09/03 14:42:44;;;;;;;0.20;0.10;;;;;;;;;;4993258;28;20041;-83
2022/09/03 14:45:16;;;;;;;0.20;0.10;;;;;;;;;;5008413;28;20099;-84
2022/09/03 14:47:43;;;;;;;;;;;;;;;;;;5002138;28;20064;-85
2022/09/03 14:50:22;;;;;;;0.20;0.10;;;;;;;;;;4984828;28;20384;-84
2022/09/03 14:53:08;;;;;;;0.20;0.10;;;;;;;;;;5010881;28;20049;-84
2022/09/03 14:55:57;;;;;;;0.20;0.10;;;;;;;;;;5008848;28;20041;-87
2022/09/03 14:58:41;;;;;;;0.20;0.10;;;;;;;;;;4999599;28;20038;-83
2022/09/03 15:01:18;;;;;;;0.20;0.10;;;;;;;;;;5009116;28;20068;-87
2022/09/03 15:03:57;;;;;;;0.20;0.10;;;;;;;;;;4983265;28;20400;-86
2022/09/03 15:06:32;;;;;;;0.20;0.10;;;;;;;;;;4992928;28;20030;-84
2022/09/03 15:08:58;;;;;;;0.20;0.10;;;;;;;;;;5028028;28;20033;-85
2022/09/03 15:11:28;;;;;;;0.20;0.10;;;;;;;;;;5001514;28;20044;-84
2022/09/03 15:14:13;;;;;;;0.20;0.10;;;;;;;;;;4993209;28;20569;-84
2022/09/03 15:16:59;;;;;;;0.20;0.10;;;;;;;;;;5007108;28;20130;-86
2022/09/03 15:19:34;;;;;;;0.20;0.10;;;;;;;;;;4992594;28;20052;-85